Detall de PIREP

Printer-friendly versionPDF version

[2012/11/16 08:13:00]
Flight IATA:CT3110
Pilot Number:011
Company ICAO:CAT
Aircraft Type:F50/A
PAX:50
Aircraft Registration:DREAMWINGS
Departing Airport: LEBL
Destination Airport: LEPA
Alternate Airport:LEBL
Online: VATSIM
Route:LARPA B31 TOLSO
Flight Level:F170
No Slew and time accel
No pause
Crash detect
Detect pilot in Cockpit between each 30 and 45 minutes
08:13 Zero fuel Weight: 41542 Lbs, Fuel Weight: 2270 Lbs
08:13 VATSIM:LEBL 160730Z 33007KT 270V350 5000 BR SCT020 13/12 Q1018 NOSIG
08:13 VATSIM:LEPA 160730Z 05003KT CAVOK 12/11 Q1019 NOSIG
08:18 Parking Brakes off
08:28 Take-off
08:28 Take off Weight: 43697 Lbs
08:28 Wind: 332º @ 007 Knots Heading: 248º
08:28 POS N41º 17´ 17´´ E002º 05´ 30´´
08:28 Flaps:3 at 144 Knots
08:28 Gear Up: 147 Knots
08:29 Flaps:2 at 176 Knots
08:29 Flaps:1 at 177 Knots
08:29 Flaps:0 at 162 Knots
08:38 TOC
08:38 Fuel Weight: 1849 Lb
08:43 Wind:359º@006 Knots Heading: 161º Ground Speed: 270 Knots Altitude 16988 ft
08:43 TOD
08:43 Fuel Weight: 1733 Lb
08:58 Wind:039º@006 Knots Heading: 202º Ground Speed: 201 Knots Altitude 4481 ft
08:58 Flaps:1 at 182 Knots
08:58 Flaps:2 at 177 Knots
08:59 Flaps:3 at 152 Knots
09:00 Flaps:4 at 136 Knots
09:00 Gear Down: 136 Knots
09:01 Flaps:5 at 111 Knots
09:01 Flaps:6 at 107 Knots
09:06 TouchDown:Rate -154 ft/min Speed: 96 Knots
09:06 VATSIM:LEPA 160830Z 05004KT 010V070 9999 FEW025 14/14 Q1019 NOSIG
09:06 Land
09:06 Wind:052º@004 Knots
09:06 Heading: 239º
09:06 Flight Duration: 00:38
09:06 Landing Weight: 42941 Lbs
09:06 POS N39º 33´ 24´´ E002º 43´ 52´´
09:10 Parking brakes on
09:10 Block to Block Duration: 00:52
09:10 Final Fuel: 1362 Lbls
09:10 Spent Fuel: 908 Lbls
09:10 Flight Length: 129 NM
09:10 TOD Land Length: 74 NM

Exportar CSV

Powered by Drupal - Modified by Danger4k